sensor_id;sensor_type;location;lat;lon;timestamp;P1;durP1;ratioP1;P2;durP2;ratioP2
1885;SDS011;943;51.568;6.998;2022-10-30T00:01:18;11.33;;;6.00;;
1885;SDS011;943;51.568;6.998;2022-10-30T00:03:46;9.83;;;5.57;;
1885;SDS011;943;51.568;6.998;2022-10-30T00:06:14;12.30;;;5.67;;
1885;SDS011;943;51.568;6.998;2022-10-30T00:08:42;11.60;;;6.50;;
1885;SDS011;943;51.568;6.998;2022-10-30T00:11:11;9.13;;;5.67;;
1885;SDS011;943;51.568;6.998;2022-10-30T00:13:41;11.20;;;5.17;;
1885;SDS011;943;51.568;6.998;2022-10-30T00:16:12;8.67;;;5.03;;
1885;SDS011;943;51.568;6.998;2022-10-30T00:18:40;10.40;;;5.53;;
1885;SDS011;943;51.568;6.998;2022-10-30T00:21:09;11.23;;;5.90;;
1885;SDS011;943;51.568;6.998;2022-10-30T00:23:45;10.97;;;5.43;;
1885;SDS011;943;51.568;6.998;2022-10-30T00:26:19;11.50;;;5.37;;
1885;SDS011;943;51.568;6.998;2022-10-30T00:28:49;8.70;;;5.37;;
1885;SDS011;943;51.568;6.998;2022-10-30T00:31:21;9.40;;;5.63;;
1885;SDS011;943;51.568;6.998;2022-10-30T00:33:51;14.03;;;6.63;;
1885;SDS011;943;51.568;6.998;2022-10-30T00:36:21;13.00;;;5.53;;
1885;SDS011;943;51.568;6.998;2022-10-30T00:38:49;11.20;;;5.90;;
1885;SDS011;943;51.568;6.998;2022-10-30T00:41:20;9.63;;;5.43;;
1885;SDS011;943;51.568;6.998;2022-10-30T00:43:53;8.63;;;5.63;;
1885;SDS011;943;51.568;6.998;2022-10-30T00:46:37;12.87;;;6.80;;
1885;SDS011;943;51.568;6.998;2022-10-30T00:49:09;10.80;;;5.37;;
1885;SDS011;943;51.568;6.998;2022-10-30T00:51:47;11.90;;;6.57;;
1885;SDS011;943;51.568;6.998;2022-10-30T00:54:20;15.20;;;6.80;;
1885;SDS011;943;51.568;6.998;2022-10-30T00:56:49;10.97;;;5.20;;
1885;SDS011;943;51.568;6.998;2022-10-30T00:59:25;10.63;;;4.97;;
1885;SDS011;943;51.568;6.998;2022-10-30T01:02:00;8.17;;;5.40;;
1885;SDS011;943;51.568;6.998;2022-10-30T01:04:30;12.50;;;5.87;;
1885;SDS011;943;51.568;6.998;2022-10-30T01:07:11;9.77;;;5.77;;
1885;SDS011;943;51.568;6.998;2022-10-30T01:09:43;11.83;;;6.00;;
1885;SDS011;943;51.568;6.998;2022-10-30T01:12:14;14.53;;;5.63;;
1885;SDS011;943;51.568;6.998;2022-10-30T01:14:44;10.80;;;5.90;;
1885;SDS011;943;51.568;6.998;2022-10-30T01:23:55;9.53;;;5.47;;
1885;SDS011;943;51.568;6.998;2022-10-30T01:32:06;8.00;;;5.20;;
1885;SDS011;943;51.568;6.998;2022-10-30T01:38:18;9.83;;;5.73;;
1885;SDS011;943;51.568;6.998;2022-10-30T01:41:13;10.60;;;6.43;;
1885;SDS011;943;51.568;6.998;2022-10-30T01:43:43;12.97;;;6.47;;
1885;SDS011;943;51.568;6.998;2022-10-30T01:46:30;18.30;;;6.43;;
1885;SDS011;943;51.568;6.998;2022-10-30T01:49:46;10.07;;;5.97;;
1885;SDS011;943;51.568;6.998;2022-10-30T01:52:39;12.10;;;6.20;;
1885;SDS011;943;51.568;6.998;2022-10-30T01:58:35;9.23;;;6.90;;
1885;SDS011;943;51.568;6.998;2022-10-30T02:01:36;10.47;;;6.17;;
1885;SDS011;943;51.568;6.998;2022-10-30T02:04:09;12.50;;;6.90;;
1885;SDS011;943;51.568;6.998;2022-10-30T02:06:39;15.43;;;6.93;;
1885;SDS011;943;51.568;6.998;2022-10-30T02:09:08;11.70;;;6.90;;
1885;SDS011;943;51.568;6.998;2022-10-30T02:11:44;12.10;;;6.20;;
1885;SDS011;943;51.568;6.998;2022-10-30T02:14:27;11.83;;;6.50;;
1885;SDS011;943;51.568;6.998;2022-10-30T02:17:07;11.60;;;6.67;;
1885;SDS011;943;51.568;6.998;2022-10-30T02:19:37;13.00;;;7.53;;
1885;SDS011;943;51.568;6.998;2022-10-30T02:22:05;12.23;;;7.07;;
1885;SDS011;943;51.568;6.998;2022-10-30T02:24:33;11.00;;;6.37;;
1885;SDS011;943;51.568;6.998;2022-10-30T02:27:00;8.73;;;5.77;;
1885;SDS011;943;51.568;6.998;2022-10-30T02:29:30;14.97;;;8.23;;
1885;SDS011;943;51.568;6.998;2022-10-30T02:31:57;16.03;;;6.97;;
1885;SDS011;943;51.568;6.998;2022-10-30T02:34:26;12.63;;;6.67;;
1885;SDS011;943;51.568;6.998;2022-10-30T02:36:55;13.40;;;6.90;;
1885;SDS011;943;51.568;6.998;2022-10-30T02:39:23;12.73;;;7.40;;
1885;SDS011;943;51.568;6.998;2022-10-30T02:41:51;9.70;;;7.00;;
1885;SDS011;943;51.568;6.998;2022-10-30T02:44:18;15.93;;;8.80;;
1885;SDS011;943;51.568;6.998;2022-10-30T02:46:46;13.47;;;6.90;;
1885;SDS011;943;51.568;6.998;2022-10-30T02:49:14;12.20;;;7.13;;
1885;SDS011;943;51.568;6.998;2022-10-30T02:51:43;13.03;;;7.37;;
1885;SDS011;943;51.568;6.998;2022-10-30T02:54:11;13.30;;;7.07;;
1885;SDS011;943;51.568;6.998;2022-10-30T02:56:39;14.50;;;6.60;;
1885;SDS011;943;51.568;6.998;2022-10-30T02:59:07;13.60;;;6.90;;
1885;SDS011;943;51.568;6.998;2022-10-30T03:01:36;11.60;;;6.90;;
1885;SDS011;943;51.568;6.998;2022-10-30T03:04:04;11.80;;;6.23;;
1885;SDS011;943;51.568;6.998;2022-10-30T03:06:31;15.47;;;6.97;;
1885;SDS011;943;51.568;6.998;2022-10-30T03:08:59;14.50;;;7.47;;
1885;SDS011;943;51.568;6.998;2022-10-30T03:11:27;13.10;;;6.40;;
1885;SDS011;943;51.568;6.998;2022-10-30T03:13:55;13.47;;;7.27;;
1885;SDS011;943;51.568;6.998;2022-10-30T03:16:23;12.90;;;6.60;;
1885;SDS011;943;51.568;6.998;2022-10-30T03:18:57;19.93;;;8.70;;
1885;SDS011;943;51.568;6.998;2022-10-30T03:21:26;20.47;;;7.60;;
1885;SDS011;943;51.568;6.998;2022-10-30T03:23:54;14.13;;;7.47;;
1885;SDS011;943;51.568;6.998;2022-10-30T03:26:22;12.33;;;7.13;;
1885;SDS011;943;51.568;6.998;2022-10-30T03:28:54;11.90;;;7.20;;
1885;SDS011;943;51.568;6.998;2022-10-30T03:31:22;14.03;;;8.13;;
1885;SDS011;943;51.568;6.998;2022-10-30T03:34:06;12.87;;;6.93;;
1885;SDS011;943;51.568;6.998;2022-10-30T03:36:34;13.50;;;7.30;;
1885;SDS011;943;51.568;6.998;2022-10-30T03:39:02;11.73;;;6.93;;
1885;SDS011;943;51.568;6.998;2022-10-30T03:41:31;11.23;;;6.40;;
1885;SDS011;943;51.568;6.998;2022-10-30T03:43:59;14.80;;;7.47;;
1885;SDS011;943;51.568;6.998;2022-10-30T03:46:27;16.03;;;7.30;;
1885;SDS011;943;51.568;6.998;2022-10-30T03:49:11;10.30;;;7.07;;
1885;SDS011;943;51.568;6.998;2022-10-30T03:51:39;12.50;;;7.37;;
1885;SDS011;943;51.568;6.998;2022-10-30T03:54:07;11.50;;;7.17;;
1885;SDS011;943;51.568;6.998;2022-10-30T03:56:35;15.00;;;7.80;;
1885;SDS011;943;51.568;6.998;2022-10-30T03:59:03;13.07;;;7.40;;
1885;SDS011;943;51.568;6.998;2022-10-30T04:01:34;12.60;;;7.27;;
1885;SDS011;943;51.568;6.998;2022-10-30T04:04:03;11.93;;;7.30;;
1885;SDS011;943;51.568;6.998;2022-10-30T04:06:31;12.47;;;7.43;;
1885;SDS011;943;51.568;6.998;2022-10-30T04:09:00;13.10;;;7.47;;
1885;SDS011;943;51.568;6.998;2022-10-30T04:11:34;10.30;;;7.43;;
1885;SDS011;943;51.568;6.998;2022-10-30T04:14:01;18.67;;;9.23;;
1885;SDS011;943;51.568;6.998;2022-10-30T04:16:29;13.13;;;7.80;;
1885;SDS011;943;51.568;6.998;2022-10-30T04:18:59;12.20;;;7.07;;
1885;SDS011;943;51.568;6.998;2022-10-30T04:21:27;13.80;;;7.27;;
1885;SDS011;943;51.568;6.998;2022-10-30T04:23:56;13.77;;;7.30;;
1885;SDS011;943;51.568;6.998;2022-10-30T04:26:27;14.23;;;7.10;;
1885;SDS011;943;51.568;6.998;2022-10-30T04:28:55;12.50;;;7.63;;
1885;SDS011;943;51.568;6.998;2022-10-30T04:31:23;12.87;;;8.50;;
1885;SDS011;943;51.568;6.998;2022-10-30T04:33:51;11.83;;;7.47;;
1885;SDS011;943;51.568;6.998;2022-10-30T04:36:19;10.87;;;7.80;;
1885;SDS011;943;51.568;6.998;2022-10-30T04:38:49;15.70;;;9.33;;
1885;SDS011;943;51.568;6.998;2022-10-30T04:41:20;10.97;;;7.57;;
1885;SDS011;943;51.568;6.998;2022-10-30T04:43:57;13.63;;;8.10;;
1885;SDS011;943;51.568;6.998;2022-10-30T04:46:27;11.30;;;6.93;;
1885;SDS011;943;51.568;6.998;2022-10-30T04:49:01;13.60;;;7.50;;
1885;SDS011;943;51.568;6.998;2022-10-30T04:51:29;14.23;;;8.70;;
1885;SDS011;943;51.568;6.998;2022-10-30T04:53:56;15.83;;;8.20;;
1885;SDS011;943;51.568;6.998;2022-10-30T04:56:27;12.40;;;8.40;;
1885;SDS011;943;51.568;6.998;2022-10-30T04:58:56;11.70;;;7.17;;
1885;SDS011;943;51.568;6.998;2022-10-30T05:01:24;13.70;;;7.80;;
1885;SDS011;943;51.568;6.998;2022-10-30T05:03:53;11.90;;;8.20;;
1885;SDS011;943;51.568;6.998;2022-10-30T05:06:22;14.70;;;7.47;;
1885;SDS011;943;51.568;6.998;2022-10-30T05:08:56;12.93;;;10.03;;
1885;SDS011;943;51.568;6.998;2022-10-30T05:11:32;14.97;;;8.43;;
1885;SDS011;943;51.568;6.998;2022-10-30T05:14:00;17.07;;;8.93;;
1885;SDS011;943;51.568;6.998;2022-10-30T05:16:28;12.10;;;8.57;;
1885;SDS011;943;51.568;6.998;2022-10-30T05:18:58;13.50;;;8.70;;
1885;SDS011;943;51.568;6.998;2022-10-30T05:21:27;10.70;;;7.60;;
1885;SDS011;943;51.568;6.998;2022-10-30T05:23:56;15.83;;;8.60;;
1885;SDS011;943;51.568;6.998;2022-10-30T05:26:25;12.67;;;8.90;;
1885;SDS011;943;51.568;6.998;2022-10-30T05:28:52;15.80;;;9.00;;
1885;SDS011;943;51.568;6.998;2022-10-30T05:31:20;13.17;;;7.73;;
1885;SDS011;943;51.568;6.998;2022-10-30T05:34:06;11.07;;;7.40;;
1885;SDS011;943;51.568;6.998;2022-10-30T05:36:37;12.67;;;9.20;;
1885;SDS011;943;51.568;6.998;2022-10-30T05:39:04;12.93;;;8.90;;
1885;SDS011;943;51.568;6.998;2022-10-30T05:41:39;19.23;;;8.60;;
1885;SDS011;943;51.568;6.998;2022-10-30T05:44:07;19.17;;;8.70;;
1885;SDS011;943;51.568;6.998;2022-10-30T05:46:38;14.60;;;10.20;;
1885;SDS011;943;51.568;6.998;2022-10-30T05:49:26;12.43;;;8.70;;
1885;SDS011;943;51.568;6.998;2022-10-30T05:51:56;10.87;;;8.13;;
1885;SDS011;943;51.568;6.998;2022-10-30T05:54:24;20.27;;;8.40;;
1885;SDS011;943;51.568;6.998;2022-10-30T05:57:05;14.90;;;10.27;;
1885;SDS011;943;51.568;6.998;2022-10-30T05:59:35;12.87;;;8.50;;
1885;SDS011;943;51.568;6.998;2022-10-30T06:02:03;17.27;;;9.97;;
1885;SDS011;943;51.568;6.998;2022-10-30T06:04:30;15.60;;;8.87;;
1885;SDS011;943;51.568;6.998;2022-10-30T06:07:01;17.23;;;9.53;;
1885;SDS011;943;51.568;6.998;2022-10-30T06:09:29;12.30;;;8.50;;
1885;SDS011;943;51.568;6.998;2022-10-30T06:11:57;14.90;;;10.10;;
1885;SDS011;943;51.568;6.998;2022-10-30T06:14:39;19.67;;;9.17;;
1885;SDS011;943;51.568;6.998;2022-10-30T06:17:07;15.53;;;8.80;;
1885;SDS011;943;51.568;6.998;2022-10-30T06:19:48;13.73;;;8.70;;
1885;SDS011;943;51.568;6.998;2022-10-30T06:22:34;14.13;;;8.90;;
1885;SDS011;943;51.568;6.998;2022-10-30T06:25:12;15.83;;;8.67;;
1885;SDS011;943;51.568;6.998;2022-10-30T06:27:52;22.00;;;9.83;;
1885;SDS011;943;51.568;6.998;2022-10-30T06:30:20;14.27;;;9.10;;
1885;SDS011;943;51.568;6.998;2022-10-30T06:32:54;13.07;;;9.33;;
1885;SDS011;943;51.568;6.998;2022-10-30T06:35:26;15.87;;;10.10;;
1885;SDS011;943;51.568;6.998;2022-10-30T06:37:55;15.43;;;9.63;;
1885;SDS011;943;51.568;6.998;2022-10-30T06:40:29;16.10;;;9.60;;
1885;SDS011;943;51.568;6.998;2022-10-30T06:43:21;13.33;;;9.67;;
1885;SDS011;943;51.568;6.998;2022-10-30T06:45:57;17.83;;;10.53;;
1885;SDS011;943;51.568;6.998;2022-10-30T06:48:26;17.00;;;10.23;;
1885;SDS011;943;51.568;6.998;2022-10-30T06:50:54;17.53;;;9.90;;
1885;SDS011;943;51.568;6.998;2022-10-30T06:53:27;19.57;;;10.17;;
1885;SDS011;943;51.568;6.998;2022-10-30T06:56:15;18.30;;;10.10;;
1885;SDS011;943;51.568;6.998;2022-10-30T06:59:02;16.97;;;9.23;;
1885;SDS011;943;51.568;6.998;2022-10-30T07:01:33;19.23;;;10.53;;
1885;SDS011;943;51.568;6.998;2022-10-30T07:04:15;13.93;;;9.40;;
1885;SDS011;943;51.568;6.998;2022-10-30T07:06:43;20.20;;;10.90;;
1885;SDS011;943;51.568;6.998;2022-10-30T07:09:11;18.83;;;10.03;;
1885;SDS011;943;51.568;6.998;2022-10-30T07:11:39;15.80;;;10.67;;
1885;SDS011;943;51.568;6.998;2022-10-30T07:14:18;11.87;;;8.63;;
1885;SDS011;943;51.568;6.998;2022-10-30T07:16:53;15.33;;;9.83;;
1885;SDS011;943;51.568;6.998;2022-10-30T07:19:22;22.93;;;10.77;;
1885;SDS011;943;51.568;6.998;2022-10-30T07:21:53;13.80;;;10.03;;
1885;SDS011;943;51.568;6.998;2022-10-30T07:24:21;17.00;;;9.67;;
1885;SDS011;943;51.568;6.998;2022-10-30T07:27:03;14.87;;;10.13;;
1885;SDS011;943;51.568;6.998;2022-10-30T07:29:38;19.63;;;10.90;;
1885;SDS011;943;51.568;6.998;2022-10-30T07:32:14;15.90;;;10.17;;
1885;SDS011;943;51.568;6.998;2022-10-30T07:34:50;16.30;;;10.70;;
1885;SDS011;943;51.568;6.998;2022-10-30T07:37:31;16.40;;;9.23;;
1885;SDS011;943;51.568;6.998;2022-10-30T07:40:04;12.23;;;9.50;;
1885;SDS011;943;51.568;6.998;2022-10-30T07:42:54;16.17;;;9.20;;
1885;SDS011;943;51.568;6.998;2022-10-30T07:45:38;17.33;;;10.90;;
1885;SDS011;943;51.568;6.998;2022-10-30T07:48:24;12.97;;;10.20;;
1885;SDS011;943;51.568;6.998;2022-10-30T07:51:03;15.30;;;10.40;;
1885;SDS011;943;51.568;6.998;2022-10-30T07:53:32;14.30;;;10.00;;
1885;SDS011;943;51.568;6.998;2022-10-30T07:56:00;15.50;;;10.37;;
1885;SDS011;943;51.568;6.998;2022-10-30T07:58:46;15.63;;;8.93;;
1885;SDS011;943;51.568;6.998;2022-10-30T08:01:37;15.17;;;9.97;;
1885;SDS011;943;51.568;6.998;2022-10-30T08:04:25;12.90;;;8.97;;
1885;SDS011;943;51.568;6.998;2022-10-30T08:06:58;18.17;;;10.50;;
1885;SDS011;943;51.568;6.998;2022-10-30T08:09:25;14.60;;;9.73;;
1885;SDS011;943;51.568;6.998;2022-10-30T08:11:53;14.63;;;10.57;;
1885;SDS011;943;51.568;6.998;2022-10-30T08:14:25;11.80;;;9.87;;
1885;SDS011;943;51.568;6.998;2022-10-30T08:16:54;13.60;;;9.20;;
1885;SDS011;943;51.568;6.998;2022-10-30T08:19:22;15.90;;;9.13;;
1885;SDS011;943;51.568;6.998;2022-10-30T08:21:51;11.80;;;8.13;;
1885;SDS011;943;51.568;6.998;2022-10-30T08:24:24;15.10;;;8.50;;
1885;SDS011;943;51.568;6.998;2022-10-30T08:26:56;11.60;;;6.70;;
1885;SDS011;943;51.568;6.998;2022-10-30T08:29:25;18.07;;;8.23;;
1885;SDS011;943;51.568;6.998;2022-10-30T08:31:54;12.70;;;7.20;;
1885;SDS011;943;51.568;6.998;2022-10-30T08:34:22;14.43;;;7.27;;
1885;SDS011;943;51.568;6.998;2022-10-30T08:36:54;13.13;;;6.93;;
1885;SDS011;943;51.568;6.998;2022-10-30T08:39:22;20.10;;;7.90;;
1885;SDS011;943;51.568;6.998;2022-10-30T08:42:11;10.73;;;6.20;;
1885;SDS011;943;51.568;6.998;2022-10-30T08:44:42;11.40;;;6.73;;
1885;SDS011;943;51.568;6.998;2022-10-30T08:47:13;10.90;;;5.97;;
1885;SDS011;943;51.568;6.998;2022-10-30T08:49:41;12.20;;;6.43;;
1885;SDS011;943;51.568;6.998;2022-10-30T08:52:09;12.03;;;7.10;;
1885;SDS011;943;51.568;6.998;2022-10-30T08:54:38;10.40;;;6.70;;
1885;SDS011;943;51.568;6.998;2022-10-30T08:57:06;14.07;;;7.37;;
1885;SDS011;943;51.568;6.998;2022-10-30T08:59:33;14.33;;;6.63;;
1885;SDS011;943;51.568;6.998;2022-10-30T09:02:02;13.40;;;6.80;;
1885;SDS011;943;51.568;6.998;2022-10-30T09:04:36;9.53;;;5.70;;
1885;SDS011;943;51.568;6.998;2022-10-30T09:07:23;19.33;;;7.30;;
1885;SDS011;943;51.568;6.998;2022-10-30T09:10:11;12.80;;;6.70;;
1885;SDS011;943;51.568;6.998;2022-10-30T09:12:41;10.60;;;7.37;;
1885;SDS011;943;51.568;6.998;2022-10-30T09:15:09;8.93;;;6.03;;
1885;SDS011;943;51.568;6.998;2022-10-30T09:17:55;13.47;;;6.47;;
1885;SDS011;943;51.568;6.998;2022-10-30T09:20:28;17.20;;;7.53;;
1885;SDS011;943;51.568;6.998;2022-10-30T09:22:57;10.57;;;6.20;;
1885;SDS011;943;51.568;6.998;2022-10-30T09:25:25;11.20;;;7.17;;
1885;SDS011;943;51.568;6.998;2022-10-30T09:28:10;13.10;;;7.13;;
1885;SDS011;943;51.568;6.998;2022-10-30T09:30:59;14.90;;;6.57;;
1885;SDS011;943;51.568;6.998;2022-10-30T09:33:33;13.63;;;6.03;;
1885;SDS011;943;51.568;6.998;2022-10-30T09:36:19;17.60;;;6.63;;
1885;SDS011;943;51.568;6.998;2022-10-30T09:38:48;13.80;;;6.80;;
1885;SDS011;943;51.568;6.998;2022-10-30T09:47:54;14.47;;;6.70;;
1885;SDS011;943;51.568;6.998;2022-10-30T09:54:34;7.93;;;6.17;;
1885;SDS011;943;51.568;6.998;2022-10-30T10:00:18;13.40;;;5.20;;
1885;SDS011;943;51.568;6.998;2022-10-30T10:06:29;11.27;;;5.43;;
1885;SDS011;943;51.568;6.998;2022-10-30T10:09:17;11.27;;;5.40;;
1885;SDS011;943;51.568;6.998;2022-10-30T10:12:24;14.20;;;5.73;;
1885;SDS011;943;51.568;6.998;2022-10-30T10:18:24;12.30;;;4.87;;
1885;SDS011;943;51.568;6.998;2022-10-30T10:21:25;11.77;;;4.80;;
1885;SDS011;943;51.568;6.998;2022-10-30T10:24:02;13.40;;;5.33;;
1885;SDS011;943;51.568;6.998;2022-10-30T10:26:59;8.30;;;4.87;;
1885;SDS011;943;51.568;6.998;2022-10-30T10:30:02;10.93;;;4.30;;
1885;SDS011;943;51.568;6.998;2022-10-30T10:32:47;9.47;;;5.60;;
1885;SDS011;943;51.568;6.998;2022-10-30T10:36:08;11.60;;;4.80;;
1885;SDS011;943;51.568;6.998;2022-10-30T10:52:22;11.30;;;5.43;;
1885;SDS011;943;51.568;6.998;2022-10-30T10:55:21;11.20;;;5.13;;
1885;SDS011;943;51.568;6.998;2022-10-30T10:58:03;13.67;;;5.27;;
1885;SDS011;943;51.568;6.998;2022-10-30T11:00:52;15.33;;;5.03;;
1885;SDS011;943;51.568;6.998;2022-10-30T11:06:50;11.37;;;5.60;;
1885;SDS011;943;51.568;6.998;2022-10-30T11:09:23;11.17;;;5.13;;
1885;SDS011;943;51.568;6.998;2022-10-30T11:11:55;12.60;;;5.73;;
1885;SDS011;943;51.568;6.998;2022-10-30T11:14:24;11.80;;;4.50;;
1885;SDS011;943;51.568;6.998;2022-10-30T11:20:22;13.83;;;4.97;;
1885;SDS011;943;51.568;6.998;2022-10-30T11:23:30;8.83;;;4.10;;
1885;SDS011;943;51.568;6.998;2022-10-30T11:28:47;13.43;;;5.20;;
1885;SDS011;943;51.568;6.998;2022-10-30T11:31:24;8.70;;;5.50;;
1885;SDS011;943;51.568;6.998;2022-10-30T11:36:45;10.60;;;4.40;;
1885;SDS011;943;51.568;6.998;2022-10-30T11:39:20;9.53;;;4.73;;
1885;SDS011;943;51.568;6.998;2022-10-30T11:44:49;9.07;;;4.70;;
1885;SDS011;943;51.568;6.998;2022-10-30T11:47:19;6.73;;;4.30;;
1885;SDS011;943;51.568;6.998;2022-10-30T11:50:05;9.50;;;4.23;;
1885;SDS011;943;51.568;6.998;2022-10-30T11:52:57;17.77;;;5.03;;
1885;SDS011;943;51.568;6.998;2022-10-30T11:55:50;10.70;;;4.60;;
1885;SDS011;943;51.568;6.998;2022-10-30T11:58:28;6.60;;;4.43;;
1885;SDS011;943;51.568;6.998;2022-10-30T12:04:15;14.63;;;4.77;;
1885;SDS011;943;51.568;6.998;2022-10-30T12:07:05;9.63;;;4.40;;
1885;SDS011;943;51.568;6.998;2022-10-30T12:09:59;8.00;;;4.27;;
1885;SDS011;943;51.568;6.998;2022-10-30T12:12:31;14.50;;;3.90;;
1885;SDS011;943;51.568;6.998;2022-10-30T12:15:09;11.10;;;4.50;;
1885;SDS011;943;51.568;6.998;2022-10-30T12:18:00;12.87;;;4.10;;
1885;SDS011;943;51.568;6.998;2022-10-30T12:20:37;8.10;;;4.37;;
1885;SDS011;943;51.568;6.998;2022-10-30T12:23:09;9.83;;;4.10;;
1885;SDS011;943;51.568;6.998;2022-10-30T12:25:48;13.43;;;4.07;;
1885;SDS011;943;51.568;6.998;2022-10-30T12:28:28;8.53;;;4.80;;
1885;SDS011;943;51.568;6.998;2022-10-30T12:31:02;8.53;;;4.60;;
1885;SDS011;943;51.568;6.998;2022-10-30T12:33:58;11.63;;;4.30;;
1885;SDS011;943;51.568;6.998;2022-10-30T12:40:26;10.90;;;5.20;;
1885;SDS011;943;51.568;6.998;2022-10-30T12:43:16;9.23;;;4.30;;
1885;SDS011;943;51.568;6.998;2022-10-30T12:45:55;13.53;;;5.07;;
1885;SDS011;943;51.568;6.998;2022-10-30T12:52:27;15.10;;;4.80;;
1885;SDS011;943;51.568;6.998;2022-10-30T12:55:35;8.10;;;4.10;;
1885;SDS011;943;51.568;6.998;2022-10-30T13:04:39;15.70;;;5.10;;
1885;SDS011;943;51.568;6.998;2022-10-30T13:14:15;10.43;;;4.63;;
1885;SDS011;943;51.568;6.998;2022-10-30T13:16:53;24.20;;;4.70;;
1885;SDS011;943;51.568;6.998;2022-10-30T13:19:22;14.90;;;4.20;;
1885;SDS011;943;51.568;6.998;2022-10-30T13:22:04;10.90;;;4.53;;
1885;SDS011;943;51.568;6.998;2022-10-30T13:24:59;11.43;;;5.03;;
1885;SDS011;943;51.568;6.998;2022-10-30T13:34:32;8.57;;;4.30;;
1885;SDS011;943;51.568;6.998;2022-10-30T13:37:40;13.30;;;4.73;;
1885;SDS011;943;51.568;6.998;2022-10-30T13:47:14;9.53;;;4.57;;
1885;SDS011;943;51.568;6.998;2022-10-30T14:03:53;13.77;;;5.67;;
1885;SDS011;943;51.568;6.998;2022-10-30T14:07:20;12.33;;;5.27;;
1885;SDS011;943;51.568;6.998;2022-10-30T14:19:12;11.17;;;4.40;;
1885;SDS011;943;51.568;6.998;2022-10-30T14:24:25;13.20;;;5.30;;
1885;SDS011;943;51.568;6.998;2022-10-30T14:32:29;16.33;;;5.60;;
1885;SDS011;943;51.568;6.998;2022-10-30T14:39:53;11.77;;;4.57;;
1885;SDS011;943;51.568;6.998;2022-10-30T14:42:27;10.20;;;4.87;;
1885;SDS011;943;51.568;6.998;2022-10-30T14:45:26;10.73;;;5.10;;
1885;SDS011;943;51.568;6.998;2022-10-30T14:48:16;8.27;;;4.60;;
1885;SDS011;943;51.568;6.998;2022-10-30T14:51:36;8.70;;;4.60;;
1885;SDS011;943;51.568;6.998;2022-10-30T14:54:32;8.17;;;5.10;;
1885;SDS011;943;51.568;6.998;2022-10-30T15:03:09;9.10;;;4.87;;
1885;SDS011;943;51.568;6.998;2022-10-30T15:06:14;8.47;;;4.90;;
1885;SDS011;943;51.568;6.998;2022-10-30T15:18:34;12.10;;;5.00;;
1885;SDS011;943;51.568;6.998;2022-10-30T15:21:05;8.83;;;5.50;;
1885;SDS011;943;51.568;6.998;2022-10-30T15:23:44;12.80;;;5.67;;
1885;SDS011;943;51.568;6.998;2022-10-30T15:26:18;13.40;;;5.60;;
1885;SDS011;943;51.568;6.998;2022-10-30T15:29:01;12.03;;;5.47;;
1885;SDS011;943;51.568;6.998;2022-10-30T15:31:32;13.80;;;5.50;;
1885;SDS011;943;51.568;6.998;2022-10-30T15:34:00;10.33;;;5.17;;
1885;SDS011;943;51.568;6.998;2022-10-30T15:36:33;10.50;;;5.83;;
1885;SDS011;943;51.568;6.998;2022-10-30T15:39:15;8.10;;;4.40;;
1885;SDS011;943;51.568;6.998;2022-10-30T15:41:58;12.00;;;5.50;;
1885;SDS011;943;51.568;6.998;2022-10-30T15:44:48;9.17;;;5.23;;
1885;SDS011;943;51.568;6.998;2022-10-30T15:47:17;12.80;;;6.03;;
1885;SDS011;943;51.568;6.998;2022-10-30T15:49:50;16.20;;;5.67;;
1885;SDS011;943;51.568;6.998;2022-10-30T15:52:21;10.67;;;6.20;;
1885;SDS011;943;51.568;6.998;2022-10-30T15:54:58;10.60;;;6.10;;
1885;SDS011;943;51.568;6.998;2022-10-30T15:57:40;8.17;;;5.10;;
1885;SDS011;943;51.568;6.998;2022-10-30T16:00:33;13.30;;;6.73;;
1885;SDS011;943;51.568;6.998;2022-10-30T16:03:15;10.73;;;5.77;;
1885;SDS011;943;51.568;6.998;2022-10-30T16:05:43;19.43;;;8.60;;
1885;SDS011;943;51.568;6.998;2022-10-30T16:08:17;13.90;;;7.43;;
1885;SDS011;943;51.568;6.998;2022-10-30T16:10:53;10.77;;;6.70;;
1885;SDS011;943;51.568;6.998;2022-10-30T16:13:22;13.27;;;7.13;;
1885;SDS011;943;51.568;6.998;2022-10-30T16:15:56;13.87;;;7.23;;
1885;SDS011;943;51.568;6.998;2022-10-30T16:18:29;14.33;;;7.17;;
1885;SDS011;943;51.568;6.998;2022-10-30T16:21:02;12.33;;;6.70;;
1885;SDS011;943;51.568;6.998;2022-10-30T16:23:39;14.47;;;8.00;;
1885;SDS011;943;51.568;6.998;2022-10-30T16:26:31;13.90;;;7.37;;
1885;SDS011;943;51.568;6.998;2022-10-30T16:31:42;14.70;;;7.43;;
1885;SDS011;943;51.568;6.998;2022-10-30T16:34:20;9.30;;;7.77;;
1885;SDS011;943;51.568;6.998;2022-10-30T16:37:04;8.90;;;6.40;;
1885;SDS011;943;51.568;6.998;2022-10-30T16:39:43;13.57;;;7.63;;
1885;SDS011;943;51.568;6.998;2022-10-30T16:42:24;20.30;;;8.77;;
1885;SDS011;943;51.568;6.998;2022-10-30T16:45:04;12.90;;;8.23;;
1885;SDS011;943;51.568;6.998;2022-10-30T16:47:45;16.00;;;8.60;;
1885;SDS011;943;51.568;6.998;2022-10-30T16:50:34;15.90;;;8.63;;
1885;SDS011;943;51.568;6.998;2022-10-30T16:53:04;15.33;;;9.27;;
1885;SDS011;943;51.568;6.998;2022-10-30T16:55:48;15.17;;;9.07;;
1885;SDS011;943;51.568;6.998;2022-10-30T16:58:18;13.97;;;9.57;;
1885;SDS011;943;51.568;6.998;2022-10-30T17:00:56;18.40;;;9.37;;
1885;SDS011;943;51.568;6.998;2022-10-30T17:03:34;13.90;;;9.47;;
1885;SDS011;943;51.568;6.998;2022-10-30T17:06:33;18.63;;;9.80;;
1885;SDS011;943;51.568;6.998;2022-10-30T17:12:05;18.83;;;10.13;;
1885;SDS011;943;51.568;6.998;2022-10-30T17:17:43;18.63;;;10.90;;
1885;SDS011;943;51.568;6.998;2022-10-30T17:20:42;16.63;;;11.63;;
1885;SDS011;943;51.568;6.998;2022-10-30T17:23:13;14.13;;;9.13;;
1885;SDS011;943;51.568;6.998;2022-10-30T17:25:45;17.07;;;11.33;;
1885;SDS011;943;51.568;6.998;2022-10-30T17:28:24;14.50;;;10.47;;
1885;SDS011;943;51.568;6.998;2022-10-30T17:31:24;14.57;;;10.67;;
1885;SDS011;943;51.568;6.998;2022-10-30T17:34:14;19.73;;;11.40;;
1885;SDS011;943;51.568;6.998;2022-10-30T17:36:46;21.23;;;11.77;;
1885;SDS011;943;51.568;6.998;2022-10-30T17:39:15;19.47;;;11.57;;
1885;SDS011;943;51.568;6.998;2022-10-30T17:41:42;14.63;;;10.70;;
1885;SDS011;943;51.568;6.998;2022-10-30T17:44:18;18.60;;;11.23;;
1885;SDS011;943;51.568;6.998;2022-10-30T17:46:51;16.17;;;11.77;;
1885;SDS011;943;51.568;6.998;2022-10-30T17:49:37;14.67;;;10.93;;
1885;SDS011;943;51.568;6.998;2022-10-30T17:52:05;17.37;;;12.27;;
1885;SDS011;943;51.568;6.998;2022-10-30T17:54:41;21.50;;;13.37;;
1885;SDS011;943;51.568;6.998;2022-10-30T17:57:10;18.93;;;13.70;;
1885;SDS011;943;51.568;6.998;2022-10-30T17:59:41;16.70;;;11.53;;
1885;SDS011;943;51.568;6.998;2022-10-30T18:02:10;20.87;;;11.90;;
1885;SDS011;943;51.568;6.998;2022-10-30T18:04:47;15.40;;;11.40;;
1885;SDS011;943;51.568;6.998;2022-10-30T18:07:17;15.80;;;11.60;;
1885;SDS011;943;51.568;6.998;2022-10-30T18:09:45;17.83;;;11.17;;
1885;SDS011;943;51.568;6.998;2022-10-30T18:12:14;14.50;;;11.70;;
1885;SDS011;943;51.568;6.998;2022-10-30T18:14:43;21.90;;;11.33;;
1885;SDS011;943;51.568;6.998;2022-10-30T18:17:11;17.60;;;12.27;;
1885;SDS011;943;51.568;6.998;2022-10-30T18:19:38;20.57;;;11.17;;
1885;SDS011;943;51.568;6.998;2022-10-30T18:22:08;14.73;;;11.03;;
1885;SDS011;943;51.568;6.998;2022-10-30T18:24:36;21.00;;;12.33;;
1885;SDS011;943;51.568;6.998;2022-10-30T18:27:03;15.40;;;11.20;;
1885;SDS011;943;51.568;6.998;2022-10-30T18:29:31;24.20;;;12.07;;
1885;SDS011;943;51.568;6.998;2022-10-30T18:31:59;19.87;;;11.90;;
1885;SDS011;943;51.568;6.998;2022-10-30T18:34:33;14.93;;;11.00;;
1885;SDS011;943;51.568;6.998;2022-10-30T18:37:01;16.93;;;11.27;;
1885;SDS011;943;51.568;6.998;2022-10-30T18:39:29;23.13;;;12.13;;
1885;SDS011;943;51.568;6.998;2022-10-30T18:41:57;17.70;;;11.50;;
1885;SDS011;943;51.568;6.998;2022-10-30T18:44:25;23.83;;;12.30;;
1885;SDS011;943;51.568;6.998;2022-10-30T18:46:53;17.93;;;12.60;;
1885;SDS011;943;51.568;6.998;2022-10-30T18:49:27;18.53;;;13.00;;
1885;SDS011;943;51.568;6.998;2022-10-30T18:51:57;19.50;;;12.23;;
1885;SDS011;943;51.568;6.998;2022-10-30T18:54:25;15.17;;;11.30;;